Webcam Flughafen St.Gallen-Altenrhein

Live-Bilder und Zeitraffer LSZR / ACH.

 

Live aus Altenrhein
LIVE
LSZR 152020Z AUTO 26009KT 230V290 9999 -RA FEW019 BKN050 10/09 Q1009
Zeitraffer heute
2021-05-15 00:14:43
LSZR 142150Z AUTO 11005KT 070V160 9999 FEW050 OVC070 11/07 Q1013